sensor_id;sensor_type;location;lat;lon;timestamp;temperature;humidity
29345;DHT22;16339;48.748;2.222;2023-03-20T00:42:18;10.00;84.30
29345;DHT22;16339;48.748;2.222;2023-03-20T00:44:52;10.10;84.40
29345;DHT22;16339;48.748;2.222;2023-03-20T00:47:24;10.10;84.70
29345;DHT22;16339;48.748;2.222;2023-03-20T00:49:54;10.10;84.40
29345;DHT22;16339;48.748;2.222;2023-03-20T00:52:24;10.10;84.10
29345;DHT22;16339;48.748;2.222;2023-03-20T00:54:53;10.10;83.70
29345;DHT22;16339;48.748;2.222;2023-03-20T00:57:25;10.00;84.00
29345;DHT22;16339;48.748;2.222;2023-03-20T00:59:57;10.00;84.10
29345;DHT22;16339;48.748;2.222;2023-03-20T01:02:28;9.90;84.10
29345;DHT22;16339;48.748;2.222;2023-03-20T01:04:57;9.90;84.50
29345;DHT22;16339;48.748;2.222;2023-03-20T01:07:26;9.90;84.00
29345;DHT22;16339;48.748;2.222;2023-03-20T01:09:55;9.80;84.00
29345;DHT22;16339;48.748;2.222;2023-03-20T01:12:26;9.70;84.10
29345;DHT22;16339;48.748;2.222;2023-03-20T01:14:55;9.80;84.70
29345;DHT22;16339;48.748;2.222;2023-03-20T01:17:26;9.80;84.30
29345;DHT22;16339;48.748;2.222;2023-03-20T01:19:55;9.80;84.00
29345;DHT22;16339;48.748;2.222;2023-03-20T01:22:24;9.70;83.80
29345;DHT22;16339;48.748;2.222;2023-03-20T01:24:53;9.70;84.40
29345;DHT22;16339;48.748;2.222;2023-03-20T01:27:21;9.70;84.00
29345;DHT22;16339;48.748;2.222;2023-03-20T01:29:53;9.70;84.30
29345;DHT22;16339;48.748;2.222;2023-03-20T01:32:29;9.60;84.10
29345;DHT22;16339;48.748;2.222;2023-03-20T01:34:58;9.50;84.50
29345;DHT22;16339;48.748;2.222;2023-03-20T01:37:27;9.50;84.80
29345;DHT22;16339;48.748;2.222;2023-03-20T01:39:56;9.60;85.00
29345;DHT22;16339;48.748;2.222;2023-03-20T01:42:25;9.60;84.80
29345;DHT22;16339;48.748;2.222;2023-03-20T01:44:56;9.50;85.00
29345;DHT22;16339;48.748;2.222;2023-03-20T01:47:25;9.50;84.90
29345;DHT22;16339;48.748;2.222;2023-03-20T01:53:09;9.50;84.80
29345;DHT22;16339;48.748;2.222;2023-03-20T01:55:39;9.50;84.60
29345;DHT22;16339;48.748;2.222;2023-03-20T01:58:13;9.50;85.20
29345;DHT22;16339;48.748;2.222;2023-03-20T02:00:46;9.50;85.00
29345;DHT22;16339;48.748;2.222;2023-03-20T02:03:18;9.50;84.80
29345;DHT22;16339;48.748;2.222;2023-03-20T02:05:47;9.50;85.00
29345;DHT22;16339;48.748;2.222;2023-03-20T02:08:23;9.50;84.80
29345;DHT22;16339;48.748;2.222;2023-03-20T02:10:53;9.50;85.00
29345;DHT22;16339;48.748;2.222;2023-03-20T02:13:25;9.50;85.10
29345;DHT22;16339;48.748;2.222;2023-03-20T02:16:02;9.50;84.50
29345;DHT22;16339;48.748;2.222;2023-03-20T02:18:33;9.50;83.60
29345;DHT22;16339;48.748;2.222;2023-03-20T02:24:38;9.40;84.30
29345;DHT22;16339;48.748;2.222;2023-03-20T02:27:13;9.40;84.60
29345;DHT22;16339;48.748;2.222;2023-03-20T02:33:23;9.40;84.70
29345;DHT22;16339;48.748;2.222;2023-03-20T02:36:19;9.40;84.70
29345;DHT22;16339;48.748;2.222;2023-03-20T02:39:11;9.30;85.10
29345;DHT22;16339;48.748;2.222;2023-03-20T02:41:46;9.40;85.20
29345;DHT22;16339;48.748;2.222;2023-03-20T02:44:22;9.40;85.50
29345;DHT22;16339;48.748;2.222;2023-03-20T02:46:57;9.50;85.20
29345;DHT22;16339;48.748;2.222;2023-03-20T02:49:47;9.50;84.90
29345;DHT22;16339;48.748;2.222;2023-03-20T02:52:26;9.50;84.60
29345;DHT22;16339;48.748;2.222;2023-03-20T02:55:07;9.40;84.40
29345;DHT22;16339;48.748;2.222;2023-03-20T02:57:44;9.40;84.30
29345;DHT22;16339;48.748;2.222;2023-03-20T03:00:22;9.30;84.30
29345;DHT22;16339;48.748;2.222;2023-03-20T03:02:59;9.40;84.70
29345;DHT22;16339;48.748;2.222;2023-03-20T03:05:35;9.30;84.80
29345;DHT22;16339;48.748;2.222;2023-03-20T03:08:05;9.30;84.70
29345;DHT22;16339;48.748;2.222;2023-03-20T03:10:41;9.20;84.70
29345;DHT22;16339;48.748;2.222;2023-03-20T03:13:14;9.20;84.50
29345;DHT22;16339;48.748;2.222;2023-03-20T03:15:47;9.20;84.70
29345;DHT22;16339;48.748;2.222;2023-03-20T03:18:19;9.20;84.70
29345;DHT22;16339;48.748;2.222;2023-03-20T03:20:51;9.10;85.00
29345;DHT22;16339;48.748;2.222;2023-03-20T03:23:27;9.10;85.20
29345;DHT22;16339;48.748;2.222;2023-03-20T03:26:02;9.10;85.40
29345;DHT22;16339;48.748;2.222;2023-03-20T03:28:35;9.00;85.20
29345;DHT22;16339;48.748;2.222;2023-03-20T03:31:07;9.00;85.10
29345;DHT22;16339;48.748;2.222;2023-03-20T03:33:39;9.00;85.10
29345;DHT22;16339;48.748;2.222;2023-03-20T03:36:12;9.00;85.30
29345;DHT22;16339;48.748;2.222;2023-03-20T03:38:48;8.90;85.10
29345;DHT22;16339;48.748;2.222;2023-03-20T03:41:27;8.90;85.20
29345;DHT22;16339;48.748;2.222;2023-03-20T03:44:04;8.90;85.30
29345;DHT22;16339;48.748;2.222;2023-03-20T03:46:39;8.90;85.40
29345;DHT22;16339;48.748;2.222;2023-03-20T03:49:15;8.90;85.70
29345;DHT22;16339;48.748;2.222;2023-03-20T03:51:48;8.90;85.30
29345;DHT22;16339;48.748;2.222;2023-03-20T03:54:21;8.90;85.60
29345;DHT22;16339;48.748;2.222;2023-03-20T03:56:53;8.90;85.70
29345;DHT22;16339;48.748;2.222;2023-03-20T03:59:27;8.90;85.50
29345;DHT22;16339;48.748;2.222;2023-03-20T04:01:58;8.90;85.40
29345;DHT22;16339;48.748;2.222;2023-03-20T04:04:29;8.90;85.40
29345;DHT22;16339;48.748;2.222;2023-03-20T04:06:59;8.90;85.50
29345;DHT22;16339;48.748;2.222;2023-03-20T04:09:28;8.80;85.50
29345;DHT22;16339;48.748;2.222;2023-03-20T04:11:59;8.80;85.50
29345;DHT22;16339;48.748;2.222;2023-03-20T04:14:28;8.80;85.70
29345;DHT22;16339;48.748;2.222;2023-03-20T04:16:58;8.80;85.90
29345;DHT22;16339;48.748;2.222;2023-03-20T04:19:26;8.80;85.70
29345;DHT22;16339;48.748;2.222;2023-03-20T04:21:55;8.80;85.60
29345;DHT22;16339;48.748;2.222;2023-03-20T04:24:24;8.80;85.60
29345;DHT22;16339;48.748;2.222;2023-03-20T04:26:53;8.80;86.20
29345;DHT22;16339;48.748;2.222;2023-03-20T04:29:25;8.80;86.10
29345;DHT22;16339;48.748;2.222;2023-03-20T04:31:54;8.90;86.10
29345;DHT22;16339;48.748;2.222;2023-03-20T04:34:24;8.80;86.10
29345;DHT22;16339;48.748;2.222;2023-03-20T04:36:54;8.80;86.50
29345;DHT22;16339;48.748;2.222;2023-03-20T04:39:22;8.80;86.80
29345;DHT22;16339;48.748;2.222;2023-03-20T04:41:51;8.90;86.70
29345;DHT22;16339;48.748;2.222;2023-03-20T04:44:20;8.90;86.30
29345;DHT22;16339;48.748;2.222;2023-03-20T04:46:51;8.90;86.40
29345;DHT22;16339;48.748;2.222;2023-03-20T04:49:20;8.90;86.60
29345;DHT22;16339;48.748;2.222;2023-03-20T04:51:49;8.80;86.60
29345;DHT22;16339;48.748;2.222;2023-03-20T04:54:18;8.80;86.70
29345;DHT22;16339;48.748;2.222;2023-03-20T04:56:47;8.80;86.90
29345;DHT22;16339;48.748;2.222;2023-03-20T04:59:15;8.90;87.30
29345;DHT22;16339;48.748;2.222;2023-03-20T05:01:45;8.90;87.10
29345;DHT22;16339;48.748;2.222;2023-03-20T05:04:16;8.80;86.80
29345;DHT22;16339;48.748;2.222;2023-03-20T05:06:46;8.90;87.20
29345;DHT22;16339;48.748;2.222;2023-03-20T05:09:15;8.90;87.30
29345;DHT22;16339;48.748;2.222;2023-03-20T05:11:44;8.90;87.60
29345;DHT22;16339;48.748;2.222;2023-03-20T05:14:13;8.90;87.30
29345;DHT22;16339;48.748;2.222;2023-03-20T05:16:42;9.00;87.60
29345;DHT22;16339;48.748;2.222;2023-03-20T05:19:11;9.00;87.30
29345;DHT22;16339;48.748;2.222;2023-03-20T05:21:42;9.10;87.40
29345;DHT22;16339;48.748;2.222;2023-03-20T05:24:11;9.10;87.30
29345;DHT22;16339;48.748;2.222;2023-03-20T05:26:40;9.10;87.30
29345;DHT22;16339;48.748;2.222;2023-03-20T05:29:09;9.10;87.20
29345;DHT22;16339;48.748;2.222;2023-03-20T05:31:37;9.10;87.60
29345;DHT22;16339;48.748;2.222;2023-03-20T05:34:06;9.10;87.60
29345;DHT22;16339;48.748;2.222;2023-03-20T05:36:35;9.10;87.80
29345;DHT22;16339;48.748;2.222;2023-03-20T05:39:07;9.20;87.60
29345;DHT22;16339;48.748;2.222;2023-03-20T05:41:36;9.20;87.50
29345;DHT22;16339;48.748;2.222;2023-03-20T05:44:05;9.20;87.50
29345;DHT22;16339;48.748;2.222;2023-03-20T05:46:34;9.20;87.50
29345;DHT22;16339;48.748;2.222;2023-03-20T05:49:02;9.20;88.20
29345;DHT22;16339;48.748;2.222;2023-03-20T05:51:31;9.20;88.20
29345;DHT22;16339;48.748;2.222;2023-03-20T05:54:00;9.30;88.40
29345;DHT22;16339;48.748;2.222;2023-03-20T05:56:31;9.40;88.80
29345;DHT22;16339;48.748;2.222;2023-03-20T05:59:02;9.40;88.80
29345;DHT22;16339;48.748;2.222;2023-03-20T06:01:31;9.50;88.80
29345;DHT22;16339;48.748;2.222;2023-03-20T06:04:02;9.50;88.20
29345;DHT22;16339;48.748;2.222;2023-03-20T06:06:31;9.50;87.80
29345;DHT22;16339;48.748;2.222;2023-03-20T06:09:02;9.60;88.00
29345;DHT22;16339;48.748;2.222;2023-03-20T06:11:33;9.60;88.30
29345;DHT22;16339;48.748;2.222;2023-03-20T06:14:02;9.60;88.30
29345;DHT22;16339;48.748;2.222;2023-03-20T06:16:30;9.60;88.60
29345;DHT22;16339;48.748;2.222;2023-03-20T06:18:59;9.70;89.10
29345;DHT22;16339;48.748;2.222;2023-03-20T06:21:28;9.70;89.20
29345;DHT22;16339;48.748;2.222;2023-03-20T06:23:57;9.80;89.10
29345;DHT22;16339;48.748;2.222;2023-03-20T06:26:25;9.80;88.90
29345;DHT22;16339;48.748;2.222;2023-03-20T06:28:57;9.80;88.80
29345;DHT22;16339;48.748;2.222;2023-03-20T06:31:26;9.90;88.80
29345;DHT22;16339;48.748;2.222;2023-03-20T06:33:55;9.90;88.70
29345;DHT22;16339;48.748;2.222;2023-03-20T06:36:24;9.90;88.50
29345;DHT22;16339;48.748;2.222;2023-03-20T06:38:55;10.00;88.60
29345;DHT22;16339;48.748;2.222;2023-03-20T06:41:24;10.00;88.20
29345;DHT22;16339;48.748;2.222;2023-03-20T06:43:53;10.10;88.20
29345;DHT22;16339;48.748;2.222;2023-03-20T06:46:24;10.10;88.30
29345;DHT22;16339;48.748;2.222;2023-03-20T06:48:53;10.10;88.50
29345;DHT22;16339;48.748;2.222;2023-03-20T06:51:21;10.20;88.50
29345;DHT22;16339;48.748;2.222;2023-03-20T06:53:50;10.20;88.60
29345;DHT22;16339;48.748;2.222;2023-03-20T06:56:19;10.20;88.80
29345;DHT22;16339;48.748;2.222;2023-03-20T06:58:48;10.30;89.40
29345;DHT22;16339;48.748;2.222;2023-03-20T07:01:16;10.30;89.80
29345;DHT22;16339;48.748;2.222;2023-03-20T07:03:48;10.30;89.70
29345;DHT22;16339;48.748;2.222;2023-03-20T07:06:16;10.40;90.00
29345;DHT22;16339;48.748;2.222;2023-03-20T07:08:46;10.40;89.80
29345;DHT22;16339;48.748;2.222;2023-03-20T07:11:21;10.50;89.70
29345;DHT22;16339;48.748;2.222;2023-03-20T07:13:51;10.60;89.80
29345;DHT22;16339;48.748;2.222;2023-03-20T07:16:20;10.60;90.00
29345;DHT22;16339;48.748;2.222;2023-03-20T07:18:52;10.70;90.10
29345;DHT22;16339;48.748;2.222;2023-03-20T07:21:20;10.70;90.00
29345;DHT22;16339;48.748;2.222;2023-03-20T07:23:51;10.80;90.10
29345;DHT22;16339;48.748;2.222;2023-03-20T07:26:20;10.80;90.10
29345;DHT22;16339;48.748;2.222;2023-03-20T07:28:48;10.90;90.10
29345;DHT22;16339;48.748;2.222;2023-03-20T07:31:22;10.90;90.20
29345;DHT22;16339;48.748;2.222;2023-03-20T07:33:56;11.00;90.30
29345;DHT22;16339;48.748;2.222;2023-03-20T07:36:25;11.00;90.30
29345;DHT22;16339;48.748;2.222;2023-03-20T07:38:54;11.10;90.50
29345;DHT22;16339;48.748;2.222;2023-03-20T07:41:23;11.10;90.30
29345;DHT22;16339;48.748;2.222;2023-03-20T07:43:51;11.20;90.20
29345;DHT22;16339;48.748;2.222;2023-03-20T07:46:20;11.30;90.20
29345;DHT22;16339;48.748;2.222;2023-03-20T07:48:50;11.30;90.10
29345;DHT22;16339;48.748;2.222;2023-03-20T07:51:21;11.40;90.20
29345;DHT22;16339;48.748;2.222;2023-03-20T07:53:50;11.40;89.70
29345;DHT22;16339;48.748;2.222;2023-03-20T07:56:18;11.50;88.50
29345;DHT22;16339;48.748;2.222;2023-03-20T07:58:50;11.50;87.20
29345;DHT22;16339;48.748;2.222;2023-03-20T08:01:19;11.50;87.50
29345;DHT22;16339;48.748;2.222;2023-03-20T08:03:48;11.50;87.30
29345;DHT22;16339;48.748;2.222;2023-03-20T08:06:17;11.70;87.70
29345;DHT22;16339;48.748;2.222;2023-03-20T08:08:57;11.70;86.30
